Timeline UpdatesTrip UpdatesNews PostsPvt PostsTravel TipsAdmin PostsConv PostsFollowed PostsChat RequestsBlog PostsPNR Posts

Disclaimer
Search
 
 
Sat Apr 19, 2014 04:47:35 ISTHomeTrainsΣChainsAtlasPNRForumGalleryNewsFAQTripsMembersLoginFeedback
No Recent News for this Train
Other Trains in the News **new
Latest...
The train numbers 56706 / 56705 Madurai—Villupuram—Madurai Passenger Train will be partially cancelled between Vriddhachalam and Villupuram section on Dec 27 and 30. the Villupuram—Madurai Passenger would depart from Vriddhachalam and in the return direction, it would terminate at Vriddhachalam (skipping Villupuram junction on either way).
Fri Dec 27, 2013 (09:31AM)
⇐ Return Journey: Train# 56706

56705/Villupuram-Madurai Passenger (UnReserved)

Aug 09 2013 (10:20PM)
Change Departure Station:
Change Arrival Station:
Post a Train Travel TipPost a Train Travel Tip **new
Post a Comment/Question/Picture/VideoPost a Comment/Question/Picture/Video
Pantry/Catering
✕ NO Pantry Car
✕ NO Catering
RSA - Rake Sharing
Rake/Coach Composition
Loco
ED WAP 4
News    PNR    Forum    Time-Table    Availability    Fare Chart    Map    Arr/Dep History    Trips    Gallery    ΣChains    X/O    Timeline    
Travel Time: 8h 36m    40 halts    Distance: 314 km    Avg Speed: 36 km/hr
Type: Passenger
Zone: SR/Southern
Departs @ 14:40 (Avg 1m late)
Platform# 3
SMTWTFS
Villupuram Junction/VM 
Arrives @ 23:16 (Avg 41m late)
Platform# ???
SMTWTFS
Sholavandan/SDN 

40 halts. 46 intermediate Stations between Villupuram Junction and Sholavandan

Show ALL intermediate Stations  Show Old Time-Table

#CodeStation NameX/OArrivesAvgDepartsAvgHaltPFDay#KmSpeedElevZoneAddress
1VM»Villupuram Junction (6)»  -14:40+1310.0-44mSRTrain Arrival / Departure Details : 04146 - 242781, Tamil Nadu
2KDMDKandambakkam  14:47+714:48+91m1121.81349mSRState Highway 9, Tamil Nadu
3TVNLTiruvennainallur  14:55+1114:56+121m--123.21247mSRIrundhai, Tamil Nadu
4PRKLParikkal (1)X  15:03+1515:04+171m1124.78253mSRKedilam, Tamil Nadu
5ULUUlundurpet (1)  15:12+1815:13+201m1135.6-66mSRThiruchi-Chennai Hwy, Tamil Nadu
6MPLYMeppuliyur  15:15+2515:16+251m--140.79068mSRNH 45, Tamil Nadu
7PVNPuvanur  15:21+2515:22+251m--148.21249mSRState Highway 69, Tamil Nadu
8VRIVriddhachalam Junction (4)X  15:55+416:05+810m2154.7-45mSRVriddhachalam ph.no. 04143-263767, Tamil Nadu
9VRTVriddhachalam Town  16:08+1016:09+101m--164.13737mSRVriddhachalam, Tamil Nadu
10TLNRTalanallur  16:18+1016:19+151m--169.72845mSRState Highway 143, Tamil Nadu
11PNDMPennadam  16:27+1416:28+141m--173.53151mSRSH 141, Tamil Nadu
12ICGIchchangadu  16:38+1216:39+181m--178.73751mSRDalavai Rd, Tamil Nadu
13MTURMathurO  16:46+1816:47+221m--183.07063mSRDalavai Rd, Tamil Nadu
14SNDISendurai  16:54+2416:55+291m--191.25377mSRPerambalur, Tamil Nadu
15VERVellur Halt  16:59+3017:00+301m--194.73593mSRVellur, Tamil Nadu
16OTKOttakovilXO  17:08+2717:09+331m--199.41398mSRState Highway 143, Tamil Nadu
17ALUAriyalur (2)O  17:49+717:50+91m21108.34670mSRAriyalur, Tamil Nadu
18SLTHSillakkudi  17:59+918:00+101m--1115.35469mSRPerambalur - Manamadurai Rd, Tamil Nadu
19KLGMKallagam  18:08+1118:09+121m--1122.67975mSRKallagam, Tamil Nadu
20KKPMKallakkudi Palanganatham  18:17+1418:18+141m--1133.16778mSRDalmiapuram, Tamil Nadu
21PMBPullambadi (2)  18:22+1718:23+171m--1137.68660mSRPullambadi, Tamil Nadu
22KTTRKattur  18:29+1418:30+141m--1146.12362mSRTrain Station Rd, Tamil Nadu
23LLILalgudi (2)  18:44+1218:45+131m--1151.44065mSRLalgudi, Tamil Nadu
24VLDEValadi  18:54+1318:55+201m--1157.46764mSRNH 227, Tamil Nadu
25BXSPichchandarkovil  18:59+2019:00+201m--1161.96167mSRThiruchirapalli, Tamil Nadu
26UKVUttamarkovil  19:02+1919:03+191m11163.91470mSRTiruchirapalli, Tamil Nadu
27SRGMSrirangam (2)  19:13+1619:14+171m11166.33069mSRTiruchirapalli, Tamil Nadu
28TPTNTiruchirappalli Town (2)  19:21+1819:22+211m11169.84873mSRTiruchirapalli, Tamil Nadu
29GOCPonmalai Golden Rock (2)O  19:29+2219:30+231m21175.4485mSRTiruchirapalli 620004, Tamil Nadu
30TPJTiruchchirappalli Junction (8)  20:10+220:25+1215m51178.16085mSRTiruchchirapalli ph.no.0431-2413363, Tamil Nadu
31PUGPunggudiX  20:34+2120:35+211m--1187.26489mSRThiruchi - Dindigul Rd, Tamil Nadu
32KLSKolatur  20:44+2220:45+221m--1196.968113mSRTiruchirappalli 621303., Tamil Nadu
33SMDMSamudram  20:52+2420:53+251m--1204.860131mSRTrichy-Dindigal Road, Tamil Nadu
34MPAManaparaiX  21:03+2521:05+262m--1214.776159mSRManapparai, Tamil Nadu
35VPJVaiyampattiX  21:16+3321:17+341m--1228.698219mSRVaiampatti, Tamil Nadu
36AYRAyyalur  21:29+4121:30+431m--1248.271335mSRDindigul, Tamil Nadu
37VDMVadamadura  21:37+4621:38+491m--1256.551299mSRVadamadurai, Tamil Nadu
38TMPTamaraipadiX  21:47+4921:48+551m--1264.213271mSRThiruchi - Dindigul Rd, Tamil Nadu
39DGDindigul Junction (4)X  22:25+3122:30+415m--1272.553287mSRDindigul ph.no.0451-2322045, Tamil Nadu
40ABIAmbaturaiX  22:43+4322:44+431m--1283.943309mSRDindigul, Tamil Nadu
41KQNKodaikanal Road (4)  22:59+3923:00+401m--1294.671242mSRDIndigal Dist, Tamil Nadu
42SDN•Sholavandan (2)•X  23:16+4123:17+411m--1313.649166mSRMadurai, Tamil Nadu
43KONKudalnagar (2)  23:39-423:40-1m--1331.64139mSRMadurai, Tamil Nadu
44MDUMadurai Junction (8)  00:30+18-52334.8-139mSRMadurai 625001, Tamil Nadu
Scroll to Top
Scroll to Bottom